createdAt,value
2023-05-10T00:00:39.000Z,73.12
2023-05-10T00:02:42.189Z,72.75
2023-05-10T00:04:45.278Z,72.78
2023-05-10T00:06:49.713Z,72.62
2023-05-10T00:08:52.800Z,73.05
2023-05-10T00:10:55.780Z,73.48
2023-05-10T00:12:58.742Z,74.07
2023-05-10T00:15:01.722Z,73.30
2023-05-10T00:17:05.200Z,74.31
2023-05-10T00:19:08.024Z,75.31
2023-05-10T00:21:11.301Z,75.03
2023-05-10T00:23:15.930Z,75.56
2023-05-10T00:25:19.000Z,76.06
2023-05-10T00:27:21.973Z,75.15
2023-05-10T00:29:25.351Z,74.82
2023-05-10T00:31:28.170Z,73.94
2023-05-10T00:33:31.175Z,74.61
2023-05-10T00:35:34.097Z,74.25
2023-05-10T00:37:37.032Z,74.81
2023-05-10T00:39:41.454Z,74.67
2023-05-10T00:41:44.474Z,73.90
2023-05-10T00:43:47.343Z,73.64
2023-05-10T00:45:51.188Z,73.63
2023-05-10T00:47:56.584Z,74.34
2023-05-10T00:50:01.864Z,73.97
2023-05-10T00:52:05.401Z,73.81
2023-05-10T00:54:08.883Z,74.21
2023-05-10T00:56:13.701Z,73.68
2023-05-10T00:58:16.998Z,74.07
2023-05-10T01:00:20.278Z,73.72
2023-05-10T01:02:23.366Z,74.57
2023-05-10T01:04:29.725Z,74.41
2023-05-10T01:06:33.752Z,74.40
2023-05-10T01:08:36.823Z,73.15
2023-05-10T01:10:39.871Z,73.47
2023-05-10T01:12:46.532Z,73.88
2023-05-10T01:14:49.997Z,73.68
2023-05-10T01:16:54.523Z,73.27
2023-05-10T01:18:57.571Z,74.78
2023-05-10T01:21:13.054Z,74.39
2023-05-10T01:23:43.677Z,74.43
2023-05-10T01:26:22.215Z,74.78
2023-05-10T01:28:54.696Z,74.50
2023-05-10T01:31:30.250Z,73.86
2023-05-10T01:33:41.207Z,74.00
2023-05-10T01:35:50.991Z,75.64
2023-05-10T01:38:01.315Z,75.50
2023-05-10T01:40:11.997Z,75.34
2023-05-10T01:42:21.392Z,75.28
2023-05-10T01:44:31.354Z,74.35
2023-05-10T01:46:38.568Z,74.34
2023-05-10T01:48:49.136Z,75.28
2023-05-10T01:50:53.742Z,74.35
2023-05-10T01:52:59.002Z,74.17
2023-05-10T01:55:06.189Z,75.57
2023-05-10T01:57:13.562Z,74.78
2023-05-10T01:59:20.630Z,74.32
2023-05-10T02:01:24.384Z,73.60
2023-05-10T02:03:29.872Z,74.73
2023-05-10T02:05:37.310Z,73.86
2023-05-10T02:07:42.059Z,73.93
2023-05-10T02:09:49.203Z,73.78
2023-05-10T02:11:52.317Z,73.40
2023-05-10T02:13:57.769Z,73.44
2023-05-10T02:16:06.568Z,73.02
2023-05-10T02:18:12.241Z,72.71
2023-05-10T02:20:17.575Z,73.17
2023-05-10T02:22:23.421Z,73.72
2023-05-10T02:24:27.709Z,73.86
2023-05-10T02:26:32.852Z,73.53
2023-05-10T02:28:39.018Z,73.29
2023-05-10T02:30:42.951Z,73.79
2023-05-10T02:32:47.800Z,72.84
2023-05-10T02:34:53.215Z,72.94
2023-05-10T02:36:56.535Z,73.22
2023-05-10T02:39:03.700Z,73.41
2023-05-10T02:41:09.743Z,72.67
2023-05-10T02:43:15.673Z,72.30
2023-05-10T02:45:22.352Z,72.86
2023-05-10T02:47:25.683Z,73.00
2023-05-10T02:49:28.656Z,72.74
2023-05-10T02:51:33.704Z,72.14
2023-05-10T02:53:42.354Z,71.89
2023-05-10T02:55:53.117Z,72.82
2023-05-10T02:57:59.242Z,72.47
2023-05-10T03:00:02.844Z,73.41
2023-05-10T03:02:08.174Z,72.68
2023-05-10T03:04:11.201Z,73.09
2023-05-10T03:06:14.315Z,73.20
2023-05-10T03:08:17.466Z,72.99
2023-05-10T03:10:23.736Z,74.04
2023-05-10T03:12:43.433Z,74.02
2023-05-10T03:14:54.727Z,74.24
2023-05-10T03:17:01.917Z,74.15
2023-05-10T03:19:14.274Z,74.67
2023-05-10T03:21:20.213Z,73.54
2023-05-10T03:23:31.586Z,74.90
2023-05-10T03:25:35.623Z,74.11
2023-05-10T03:27:46.572Z,74.78
2023-05-10T03:29:50.392Z,75.03
2023-05-10T03:31:53.563Z,74.92
2023-05-10T03:33:56.706Z,74.19
2023-05-10T03:36:03.115Z,75.05
2023-05-10T03:38:06.406Z,75.37
2023-05-10T03:40:11.347Z,74.96
2023-05-10T03:42:19.176Z,75.03
2023-05-10T03:44:23.633Z,74.03
2023-05-10T03:46:26.991Z,74.65
2023-05-10T03:48:29.998Z,75.16
2023-05-10T03:50:33.379Z,74.94
2023-05-10T03:52:36.359Z,74.62
2023-05-10T03:54:39.266Z,73.73
2023-05-10T03:56:42.341Z,73.30
2023-05-10T03:58:45.395Z,74.35
2023-05-10T04:00:49.884Z,73.12
2023-05-10T04:02:52.953Z,74.91
2023-05-10T04:04:56.655Z,75.06
2023-05-10T04:06:59.565Z,75.12
2023-05-10T04:09:05.447Z,76.22
2023-05-10T04:11:09.213Z,74.70
2023-05-10T04:13:12.618Z,75.41
2023-05-10T04:15:15.664Z,74.57
2023-05-10T04:17:20.227Z,74.65
2023-05-10T04:19:23.185Z,73.94
2023-05-10T04:21:30.818Z,75.16
2023-05-10T04:23:33.716Z,74.33
2023-05-10T04:25:37.008Z,74.34
2023-05-10T04:27:39.877Z,72.78
2023-05-10T04:29:42.976Z,71.66
2023-05-10T04:31:46.074Z,72.37
2023-05-10T04:33:51.273Z,70.60
2023-05-10T04:35:54.305Z,68.38
2023-05-10T04:37:57.283Z,67.52
2023-05-10T04:40:01.371Z,68.16
2023-05-10T04:42:06.943Z,68.28
2023-05-10T04:44:09.793Z,68.43
2023-05-10T04:46:12.876Z,68.81
2023-05-10T04:48:15.753Z,67.04
2023-05-10T04:50:20.354Z,67.03
2023-05-10T04:52:23.227Z,67.36
2023-05-10T04:54:26.292Z,66.62
2023-05-10T04:56:29.190Z,66.77
2023-05-10T04:58:32.270Z,65.73
2023-05-10T05:00:35.220Z,63.64
2023-05-10T05:02:38.330Z,65.13
2023-05-10T05:04:41.413Z,63.60
2023-05-10T05:06:46.023Z,63.27
2023-05-10T05:08:50.691Z,64.56
2023-05-10T05:10:53.824Z,63.79
2023-05-10T05:12:56.726Z,67.41
2023-05-10T05:14:59.790Z,63.26
2023-05-10T05:17:02.849Z,62.45
2023-05-10T05:19:05.847Z,62.98
2023-05-10T05:21:16.483Z,62.07
2023-05-10T05:23:22.053Z,63.10
2023-05-10T05:25:25.004Z,61.90
2023-05-10T05:27:29.136Z,61.12
2023-05-10T05:29:32.133Z,59.56
2023-05-10T05:31:35.226Z,60.72
2023-05-10T05:33:38.157Z,58.99
2023-05-10T05:35:41.282Z,60.86
2023-05-10T05:37:44.272Z,59.75
2023-05-10T05:39:49.103Z,58.26
2023-05-10T05:41:52.000Z,57.33
2023-05-10T05:43:54.995Z,57.43
2023-05-10T05:45:59.353Z,57.08
2023-05-10T05:48:02.431Z,55.85
2023-05-10T05:50:06.381Z,57.76
2023-05-10T05:52:09.448Z,56.43
2023-05-10T05:54:12.422Z,57.38
2023-05-10T05:56:16.831Z,56.02
2023-05-10T05:58:19.732Z,53.73
2023-05-10T06:00:23.047Z,54.88
2023-05-10T06:02:26.305Z,54.55
2023-05-10T06:04:29.444Z,53.39
2023-05-10T06:06:33.504Z,52.73
2023-05-10T06:08:36.809Z,52.35
2023-05-10T06:10:39.764Z,51.71
2023-05-10T06:12:44.424Z,53.76
2023-05-10T06:14:47.515Z,51.97
2023-05-10T06:16:50.510Z,52.36
2023-05-10T06:18:53.672Z,49.73
2023-05-10T06:20:56.687Z,50.51
2023-05-10T06:22:59.943Z,48.93
2023-05-10T06:25:03.468Z,49.06
2023-05-10T06:27:07.188Z,46.09
2023-05-10T06:29:11.563Z,48.06
2023-05-10T06:31:14.726Z,45.17
2023-05-10T06:33:17.720Z,45.10
2023-05-10T06:35:20.701Z,42.38
2023-05-10T06:37:23.714Z,45.14
2023-05-10T06:39:26.565Z,45.04
2023-05-10T06:41:29.572Z,40.98
2023-05-10T06:43:32.530Z,42.34
2023-05-10T06:45:37.107Z,43.83
2023-05-10T06:47:40.010Z,42.99
2023-05-10T06:49:42.996Z,42.73
2023-05-10T06:51:46.495Z,43.33
2023-05-10T06:53:49.499Z,41.18
2023-05-10T06:55:52.341Z,39.36
2023-05-10T06:57:55.475Z,40.24
2023-05-10T06:59:58.485Z,41.06
2023-05-10T07:02:02.953Z,40.17
2023-05-10T07:04:06.277Z,40.21
2023-05-10T07:06:15.628Z,41.66
2023-05-10T07:08:21.543Z,42.25
2023-05-10T07:10:24.580Z,39.58
2023-05-10T07:12:27.783Z,40.23
2023-05-10T07:14:30.816Z,38.17
2023-05-10T07:16:34.372Z,37.62
2023-05-10T07:18:39.268Z,38.38
2023-05-10T07:20:42.273Z,38.54
2023-05-10T07:22:45.217Z,38.54
2023-05-10T07:24:48.084Z,38.05
2023-05-10T07:26:51.191Z,38.67
2023-05-10T07:28:54.035Z,39.87
2023-05-10T07:30:57.346Z,37.72
2023-05-10T07:33:00.584Z,37.81
2023-05-10T07:35:05.846Z,37.31
2023-05-10T07:37:08.790Z,36.53
2023-05-10T07:39:16.184Z,36.90
2023-05-10T07:41:22.472Z,36.90
2023-05-10T07:43:25.496Z,37.05
2023-05-10T07:45:28.528Z,37.52
2023-05-10T07:47:31.506Z,36.96
2023-05-10T07:49:34.529Z,34.24
2023-05-10T07:51:38.943Z,33.51
2023-05-10T07:53:41.879Z,34.58
2023-05-10T07:55:45.165Z,36.44
2023-05-10T07:57:48.560Z,36.35
2023-05-10T07:59:51.477Z,39.18
2023-05-10T08:01:54.380Z,36.01
2023-05-10T08:03:57.512Z,36.35
2023-05-10T08:06:00.977Z,38.67
2023-05-10T08:08:05.836Z,37.95
2023-05-10T08:10:12.391Z,36.67
2023-05-10T08:12:15.409Z,36.61
2023-05-10T08:14:18.390Z,36.60
2023-05-10T08:16:21.665Z,38.57
2023-05-10T08:18:24.828Z,37.08
2023-05-10T08:20:28.148Z,37.54
2023-05-10T08:22:31.040Z,35.93
2023-05-10T08:24:39.551Z,34.10
2023-05-10T08:26:42.440Z,39.12
2023-05-10T08:28:45.578Z,34.67
2023-05-10T08:30:48.598Z,34.67
2023-05-10T08:32:51.582Z,35.34
2023-05-10T08:34:54.552Z,34.73
2023-05-10T08:36:57.573Z,36.15
2023-05-10T08:39:00.667Z,35.76
2023-05-10T08:41:06.639Z,35.13
2023-05-10T08:43:13.109Z,33.69
2023-05-10T08:45:18.488Z,34.88
2023-05-10T08:47:21.678Z,35.36
2023-05-10T08:49:27.710Z,33.86
2023-05-10T08:51:34.455Z,35.21
2023-05-10T08:53:38.898Z,35.48
2023-05-10T08:55:44.154Z,34.86
2023-05-10T08:57:48.873Z,37.97
2023-05-10T08:59:52.202Z,33.41
2023-05-10T09:01:57.208Z,34.29
2023-05-10T09:04:00.442Z,35.26
2023-05-10T09:06:04.052Z,33.79
2023-05-10T09:08:08.167Z,33.25
2023-05-10T09:10:12.766Z,32.95
2023-05-10T09:12:17.019Z,34.60
2023-05-10T09:14:21.975Z,34.36
2023-05-10T09:16:25.807Z,35.80
2023-05-10T09:18:28.894Z,34.59
2023-05-10T09:20:32.403Z,36.02
2023-05-10T09:22:35.652Z,36.85
2023-05-10T09:24:43.712Z,34.42
2023-05-10T09:26:50.408Z,35.68
2023-05-10T09:28:54.652Z,36.23
2023-05-10T09:30:59.208Z,33.39
2023-05-10T09:33:02.296Z,32.32
2023-05-10T09:35:09.791Z,31.95
2023-05-10T09:37:12.992Z,33.51
2023-05-10T09:39:16.121Z,32.71
2023-05-10T09:41:20.182Z,32.43
2023-05-10T09:43:23.153Z,32.48
2023-05-10T09:45:27.491Z,31.61
2023-05-10T09:47:34.076Z,31.10
2023-05-10T09:49:37.010Z,30.31
2023-05-10T09:51:39.971Z,30.15
2023-05-10T09:53:43.004Z,32.38
2023-05-10T09:55:47.232Z,33.32
2023-05-10T09:57:50.803Z,31.91
2023-05-10T09:59:55.907Z,33.68
2023-05-10T10:02:00.875Z,31.85
2023-05-10T10:04:07.137Z,31.52
2023-05-10T10:06:15.979Z,31.88
2023-05-10T10:08:29.986Z,31.66
2023-05-10T10:10:34.239Z,31.96
2023-05-10T10:12:37.311Z,34.29
2023-05-10T10:14:40.684Z,30.69
2023-05-10T10:16:55.435Z,31.98
2023-05-10T10:19:08.324Z,33.72
2023-05-10T10:21:11.616Z,33.74
2023-05-10T10:23:17.161Z,35.36
2023-05-10T10:25:23.396Z,33.31
2023-05-10T10:27:35.366Z,33.71
2023-05-10T10:29:46.976Z,33.83
2023-05-10T10:31:59.928Z,35.47
2023-05-10T10:34:08.165Z,34.67
2023-05-10T10:36:14.595Z,34.63
2023-05-10T10:38:18.622Z,33.60
2023-05-10T10:40:28.374Z,33.74
2023-05-10T10:42:47.532Z,37.13
2023-05-10T10:44:50.430Z,34.96
2023-05-10T10:47:06.798Z,34.91
2023-05-10T10:49:12.895Z,34.10
2023-05-10T10:51:17.583Z,35.04
2023-05-10T10:53:20.535Z,34.57
2023-05-10T10:55:27.872Z,35.45
2023-05-10T10:57:33.845Z,35.86
2023-05-10T10:59:36.933Z,37.34
2023-05-10T11:01:45.861Z,37.76
2023-05-10T11:04:21.644Z,36.98
2023-05-10T11:06:35.643Z,35.30
2023-05-10T11:08:47.418Z,34.25
2023-05-10T11:11:08.439Z,37.49
2023-05-10T11:13:14.149Z,34.51
2023-05-10T11:15:17.806Z,34.99
2023-05-10T11:17:25.186Z,36.05
2023-05-10T11:19:29.848Z,39.02
2023-05-10T11:21:35.983Z,37.65
2023-05-10T11:23:52.853Z,38.43
2023-05-10T11:25:56.437Z,37.08
2023-05-10T11:28:04.035Z,39.01
2023-05-10T11:30:08.044Z,36.37
2023-05-10T11:32:11.220Z,36.00
2023-05-10T11:34:25.325Z,35.28
2023-05-10T11:36:30.714Z,35.65
2023-05-10T11:38:35.043Z,35.93
2023-05-10T11:40:39.110Z,36.49
2023-05-10T11:42:42.173Z,36.23
2023-05-10T11:44:48.383Z,35.02
2023-05-10T11:46:51.686Z,34.99
2023-05-10T11:48:59.175Z,34.92
2023-05-10T11:51:03.425Z,34.70
2023-05-10T11:53:06.672Z,36.54
2023-05-10T11:55:11.297Z,35.43
2023-05-10T11:57:14.386Z,36.96
2023-05-10T11:59:17.307Z,36.00
2023-05-10T12:01:20.432Z,35.44
2023-05-10T12:03:23.626Z,36.00
2023-05-10T12:05:27.027Z,32.12
2023-05-10T12:07:30.053Z,32.88
2023-05-10T12:09:43.365Z,33.32
2023-05-10T12:11:48.412Z,32.51
2023-05-10T12:13:52.207Z,35.79
2023-05-10T12:15:55.150Z,34.70
2023-05-10T12:17:58.535Z,36.28
2023-05-10T12:20:16.129Z,36.59
2023-05-10T12:22:22.475Z,37.85
2023-05-10T12:24:26.722Z,34.48
2023-05-10T12:26:30.487Z,36.11
2023-05-10T12:28:35.382Z,38.74
2023-05-10T12:30:38.972Z,38.58
2023-05-10T12:32:42.878Z,38.52
2023-05-10T12:34:48.898Z,37.25
2023-05-10T12:36:53.168Z,37.21
2023-05-10T12:39:04.396Z,37.15
2023-05-10T12:41:08.657Z,35.87
2023-05-10T12:43:11.657Z,33.02
2023-05-10T12:45:16.065Z,33.31
2023-05-10T12:47:19.156Z,33.25
2023-05-10T12:49:22.325Z,34.66
2023-05-10T12:51:25.299Z,36.27
2023-05-10T12:53:28.486Z,34.81
2023-05-10T12:55:31.513Z,36.31
2023-05-10T12:57:34.594Z,34.67
2023-05-10T12:59:38.369Z,35.33
2023-05-10T13:01:42.899Z,34.29
2023-05-10T13:03:46.114Z,34.44
2023-05-10T13:05:50.463Z,34.55
2023-05-10T13:07:53.486Z,33.07
2023-05-10T13:09:56.475Z,34.33
2023-05-10T13:11:59.493Z,34.72
2023-05-10T13:14:04.441Z,35.22
2023-05-10T13:16:08.211Z,32.28
2023-05-10T13:18:12.667Z,33.18
2023-05-10T13:20:16.186Z,33.71
2023-05-10T13:22:28.720Z,33.79
2023-05-10T13:24:39.719Z,35.15
2023-05-10T13:26:42.751Z,36.30
2023-05-10T13:28:47.321Z,35.91
2023-05-10T13:30:50.322Z,33.36
2023-05-10T13:32:53.308Z,35.30
2023-05-10T13:34:58.182Z,34.52
2023-05-10T13:37:01.283Z,35.77
2023-05-10T13:39:06.509Z,32.91
2023-05-10T13:41:09.780Z,33.23
2023-05-10T13:43:12.745Z,33.01
2023-05-10T13:45:16.313Z,32.74
2023-05-10T13:47:20.355Z,31.88
2023-05-10T13:49:23.459Z,32.36
2023-05-10T13:51:27.939Z,31.65
2023-05-10T13:53:30.974Z,32.89
2023-05-10T13:55:33.898Z,33.49
2023-05-10T13:57:38.299Z,32.75
2023-05-10T13:59:41.271Z,33.44
2023-05-10T14:01:44.965Z,31.94
2023-05-10T14:03:47.929Z,34.25
2023-05-10T14:05:51.168Z,36.47
2023-05-10T14:07:55.636Z,32.59
2023-05-10T14:09:58.571Z,33.78
2023-05-10T14:12:01.507Z,32.28
2023-05-10T14:14:04.834Z,34.93
2023-05-10T14:16:08.371Z,36.79
2023-05-10T14:18:11.449Z,34.19
2023-05-10T14:20:14.355Z,33.69
2023-05-10T14:22:17.326Z,35.17
2023-05-10T14:24:21.683Z,34.16
2023-05-10T14:26:24.773Z,32.11
2023-05-10T14:28:27.740Z,33.80
2023-05-10T14:30:31.906Z,33.55
2023-05-10T14:32:35.274Z,34.57
2023-05-10T14:34:38.506Z,37.64
2023-05-10T14:36:41.553Z,36.96
2023-05-10T14:38:44.814Z,33.16
2023-05-10T14:40:49.239Z,36.39
2023-05-10T14:42:54.124Z,32.91
2023-05-10T14:44:57.024Z,32.88
2023-05-10T14:47:00.072Z,34.02
2023-05-10T14:49:03.075Z,32.89
2023-05-10T14:51:06.031Z,33.89
2023-05-10T14:53:08.853Z,35.95
2023-05-10T14:55:11.964Z,32.44
2023-05-10T14:57:16.590Z,32.24
2023-05-10T14:59:19.826Z,32.73
2023-05-10T15:01:23.235Z,34.71
2023-05-10T15:03:27.040Z,35.84
2023-05-10T15:05:30.349Z,36.32
2023-05-10T15:07:33.627Z,33.89
2023-05-10T15:09:36.416Z,35.93
2023-05-10T15:11:39.229Z,35.03
2023-05-10T15:13:43.567Z,37.34
2023-05-10T15:15:46.636Z,36.74
2023-05-10T15:17:49.748Z,37.78
2023-05-10T15:19:52.621Z,38.72
2023-05-10T15:21:55.517Z,38.76
2023-05-10T15:23:58.336Z,36.02
2023-05-10T15:26:02.135Z,38.00
2023-05-10T15:28:05.927Z,41.58
2023-05-10T15:30:11.827Z,40.55
2023-05-10T15:32:14.655Z,47.67
2023-05-10T15:34:18.146Z,46.17
2023-05-10T15:36:21.089Z,41.12
2023-05-10T15:38:23.916Z,42.54
2023-05-10T15:40:27.107Z,45.06
2023-05-10T15:42:31.132Z,41.36
2023-05-10T15:44:36.496Z,38.66
2023-05-10T15:46:40.987Z,42.18
2023-05-10T15:48:43.848Z,42.22
2023-05-10T15:50:46.746Z,42.75
2023-05-10T15:52:49.927Z,40.16
2023-05-10T15:54:52.789Z,43.58
2023-05-10T15:56:55.853Z,40.19
2023-05-10T15:58:58.793Z,39.31
2023-05-10T16:01:01.699Z,46.72
2023-05-10T16:03:06.924Z,40.85
2023-05-10T16:05:10.521Z,43.08
2023-05-10T16:07:13.359Z,41.97
2023-05-10T16:09:16.765Z,42.23
2023-05-10T16:11:19.773Z,41.04
2023-05-10T16:13:22.750Z,42.67
2023-05-10T16:15:25.600Z,40.29
2023-05-10T16:17:28.614Z,40.89
2023-05-10T16:19:33.024Z,40.91
2023-05-10T16:21:36.210Z,44.56
2023-05-10T16:23:39.140Z,44.68
2023-05-10T16:25:42.273Z,48.17
2023-05-10T16:27:45.387Z,47.49
2023-05-10T16:29:48.481Z,48.32
2023-05-10T16:31:51.324Z,44.77
2023-05-10T16:33:54.193Z,43.48
2023-05-10T16:35:58.686Z,44.09
2023-05-10T16:38:01.724Z,44.48
2023-05-10T16:40:05.601Z,44.72
2023-05-10T16:42:08.531Z,47.16
2023-05-10T16:44:11.373Z,49.80
2023-05-10T16:46:14.344Z,52.54
2023-05-10T16:48:17.471Z,48.88
2023-05-10T16:50:20.431Z,51.87
2023-05-10T16:52:24.781Z,53.09
2023-05-10T16:54:29.150Z,48.80
2023-05-10T16:56:32.180Z,54.39
2023-05-10T16:58:35.091Z,50.39
2023-05-10T17:00:37.998Z,52.80
2023-05-10T17:02:40.960Z,51.00
2023-05-10T17:04:43.989Z,50.67
2023-05-10T17:06:47.067Z,51.58
2023-05-10T17:08:51.975Z,51.25
2023-05-10T17:10:54.839Z,52.92
2023-05-10T17:12:57.734Z,52.29
2023-05-10T17:15:00.920Z,53.00
2023-05-10T17:17:03.930Z,55.46
2023-05-10T17:19:07.023Z,53.33
2023-05-10T17:21:10.016Z,55.59
2023-05-10T17:23:13.014Z,55.70
2023-05-10T17:25:17.732Z,54.34
2023-05-10T17:27:20.793Z,55.33
2023-05-10T17:29:23.622Z,56.94
2023-05-10T17:31:26.536Z,54.53
2023-05-10T17:33:29.473Z,54.35
2023-05-10T17:35:32.704Z,53.03
2023-05-10T17:37:35.686Z,53.54
2023-05-10T17:39:39.993Z,54.41
2023-05-10T17:41:44.494Z,54.48
2023-05-10T17:43:47.303Z,56.46
2023-05-10T17:45:50.565Z,54.38
2023-05-10T17:47:53.713Z,57.68
2023-05-10T17:49:56.574Z,57.39
2023-05-10T17:51:59.518Z,56.04
2023-05-10T17:54:02.551Z,58.61
2023-05-10T17:56:05.952Z,55.49
2023-05-10T17:58:11.849Z,54.89
2023-05-10T18:00:16.049Z,58.07
2023-05-10T18:02:18.920Z,57.67
2023-05-10T18:04:22.303Z,54.83
2023-05-10T18:06:25.384Z,54.96
2023-05-10T18:08:30.748Z,55.54
2023-05-10T18:10:34.174Z,55.92
2023-05-10T18:12:37.100Z,57.62
2023-05-10T18:14:41.754Z,59.32
2023-05-10T18:16:45.245Z,59.73
2023-05-10T18:18:48.198Z,60.14
2023-05-10T18:20:56.798Z,60.94
2023-05-10T18:22:59.670Z,62.69
2023-05-10T18:25:02.647Z,63.41
2023-05-10T18:27:06.095Z,62.59
2023-05-10T18:29:09.351Z,62.10
2023-05-10T18:31:13.619Z,63.83
2023-05-10T18:33:16.685Z,64.77
2023-05-10T18:35:19.943Z,62.03
2023-05-10T18:37:23.358Z,62.15
2023-05-10T18:39:26.537Z,64.72
2023-05-10T18:41:29.887Z,64.39
2023-05-10T18:43:34.738Z,63.06
2023-05-10T18:45:39.289Z,62.95
2023-05-10T18:47:43.550Z,64.16
2023-05-10T18:49:46.669Z,65.62
2023-05-10T18:51:49.489Z,67.20
2023-05-10T18:53:52.438Z,66.60
2023-05-10T18:56:01.535Z,65.04
2023-05-10T18:58:04.328Z,65.96
2023-05-10T19:00:08.977Z,66.20
2023-05-10T19:02:11.977Z,64.77
2023-05-10T19:04:16.468Z,65.12
2023-05-10T19:06:19.380Z,64.54
2023-05-10T19:08:22.355Z,65.23
2023-05-10T19:10:25.254Z,65.89
2023-05-10T19:12:28.730Z,62.81
2023-05-10T19:14:31.691Z,63.03
2023-05-10T19:16:34.735Z,62.82
2023-05-10T19:18:38.842Z,63.47
2023-05-10T19:20:43.328Z,64.20
2023-05-10T19:23:02.250Z,63.19
2023-05-10T19:25:12.042Z,64.54
2023-05-10T19:27:14.947Z,66.02
2023-05-10T19:29:17.787Z,64.76
2023-05-10T19:31:21.953Z,64.75
2023-05-10T19:33:25.050Z,62.75
2023-05-10T19:35:28.217Z,63.56
2023-05-10T19:37:32.553Z,63.83
2023-05-10T19:39:35.717Z,62.45
2023-05-10T19:41:38.688Z,64.55
2023-05-10T19:43:42.105Z,64.17
2023-05-10T19:45:44.928Z,63.99
2023-05-10T19:47:47.934Z,63.09
2023-05-10T19:49:50.934Z,62.40
2023-05-10T19:51:53.976Z,62.26
2023-05-10T19:53:58.523Z,61.70
2023-05-10T19:56:06.695Z,62.96
2023-05-10T19:58:09.518Z,62.52
2023-05-10T20:00:13.617Z,62.18
2023-05-10T20:02:16.388Z,63.23
2023-05-10T20:04:19.149Z,63.70
2023-05-10T20:06:21.899Z,65.34
2023-05-10T20:08:25.335Z,64.56
2023-05-10T20:10:29.724Z,64.18
2023-05-10T20:12:32.857Z,61.53
2023-05-10T20:14:35.697Z,62.46
2023-05-10T20:16:38.634Z,60.82
2023-05-10T20:18:41.474Z,59.90
2023-05-10T20:20:44.379Z,61.07
2023-05-10T20:22:47.677Z,60.94
2023-05-10T20:24:50.797Z,62.31
2023-05-10T20:26:55.400Z,62.43
2023-05-10T20:28:58.206Z,58.57
2023-05-10T20:31:02.270Z,59.24
2023-05-10T20:33:05.425Z,61.85
2023-05-10T20:35:08.937Z,62.01
2023-05-10T20:37:11.830Z,57.95
2023-05-10T20:39:15.381Z,58.84
2023-05-10T20:41:18.383Z,59.05
2023-05-10T20:43:22.628Z,58.16
2023-05-10T20:45:25.492Z,59.31
2023-05-10T20:47:28.458Z,61.08
2023-05-10T20:49:31.449Z,60.26
2023-05-10T20:51:34.294Z,59.12
2023-05-10T20:53:37.252Z,60.64
2023-05-10T20:55:40.429Z,62.75
2023-05-10T20:57:43.365Z,63.08
2023-05-10T20:59:47.760Z,63.53
2023-05-10T21:01:51.107Z,58.18
2023-05-10T21:03:53.935Z,58.96
2023-05-10T21:05:56.995Z,56.85
2023-05-10T21:07:59.730Z,63.67
2023-05-10T21:10:02.551Z,61.89
2023-05-10T21:12:05.888Z,62.75
2023-05-10T21:14:08.978Z,63.88
2023-05-10T21:16:13.230Z,64.80
2023-05-10T21:18:16.358Z,63.26
2023-05-10T21:20:19.597Z,64.79
2023-05-10T21:22:22.519Z,60.19
2023-05-10T21:24:27.379Z,62.10
2023-05-10T21:26:30.381Z,65.37
2023-05-10T21:28:33.327Z,65.27
2023-05-10T21:30:36.372Z,59.09
2023-05-10T21:32:40.752Z,56.93
2023-05-10T21:34:43.645Z,58.77
2023-05-10T21:36:46.442Z,61.90
2023-05-10T21:38:50.853Z,62.46
2023-05-10T21:40:53.899Z,60.61
2023-05-10T21:42:56.882Z,63.06
2023-05-10T21:44:59.675Z,63.33
2023-05-10T21:47:02.876Z,60.23
2023-05-10T21:49:16.373Z,61.85
2023-05-10T21:51:19.313Z,61.92
2023-05-10T21:53:22.924Z,63.74
2023-05-10T21:55:25.951Z,62.44
2023-05-10T21:57:28.721Z,62.85
2023-05-10T21:59:31.541Z,65.57
2023-05-10T22:01:34.367Z,64.69
2023-05-10T22:03:37.409Z,62.57
2023-05-10T22:05:41.685Z,62.19
2023-05-10T22:07:44.548Z,64.00
2023-05-10T22:09:52.552Z,64.55
2023-05-10T22:11:55.427Z,63.96
2023-05-10T22:13:59.015Z,63.16
2023-05-10T22:16:02.029Z,66.01
2023-05-10T22:18:05.204Z,64.22
2023-05-10T22:20:09.762Z,62.83
2023-05-10T22:22:14.017Z,66.74
2023-05-10T22:24:16.826Z,64.90
2023-05-10T22:26:19.718Z,64.30
2023-05-10T22:28:22.582Z,66.65
2023-05-10T22:30:25.640Z,66.24
2023-05-10T22:32:28.511Z,66.12
2023-05-10T22:34:31.417Z,64.20
2023-05-10T22:36:34.425Z,65.09
2023-05-10T22:38:38.622Z,68.31
2023-05-10T22:40:42.003Z,68.88
2023-05-10T22:42:45.190Z,67.70
2023-05-10T22:44:48.208Z,70.37
2023-05-10T22:46:51.138Z,69.98
2023-05-10T22:48:54.224Z,70.75
2023-05-10T22:50:57.060Z,71.09
2023-05-10T22:52:59.911Z,71.64
2023-05-10T22:55:04.509Z,72.42
2023-05-10T22:57:07.376Z,69.41
2023-05-10T22:59:10.658Z,70.37
2023-05-10T23:01:14.059Z,67.86
2023-05-10T23:03:17.026Z,71.41
2023-05-10T23:05:19.897Z,68.37
2023-05-10T23:07:22.930Z,70.86
2023-05-10T23:09:25.958Z,70.50
2023-05-10T23:11:30.157Z,70.44
2023-05-10T23:13:33.058Z,71.83
2023-05-10T23:15:36.597Z,66.83
2023-05-10T23:17:39.535Z,69.91
2023-05-10T23:19:42.281Z,68.99
2023-05-10T23:21:45.118Z,67.42
2023-05-10T23:23:48.165Z,68.31
2023-05-10T23:25:51.687Z,71.50
2023-05-10T23:27:55.948Z,72.46
2023-05-10T23:29:58.938Z,70.70
2023-05-10T23:32:01.828Z,71.72
2023-05-10T23:34:04.908Z,71.39
2023-05-10T23:36:08.189Z,71.02
2023-05-10T23:38:11.110Z,71.88
2023-05-10T23:40:14.685Z,71.96
2023-05-10T23:42:17.568Z,70.76
2023-05-10T23:44:21.872Z,73.49
2023-05-10T23:46:25.015Z,72.66
2023-05-10T23:48:27.984Z,69.22
2023-05-10T23:50:30.958Z,69.72
2023-05-10T23:52:33.912Z,70.01
2023-05-10T23:54:36.804Z,71.17
2023-05-10T23:56:39.607Z,71.90
2023-05-10T23:58:42.915Z,71.40
